createdAt,value
2023-12-08T00:02:17.886Z,100902.22
2023-12-08T00:04:44.256Z,100907.09
2023-12-08T00:07:10.721Z,100905.22
2023-12-08T00:09:37.171Z,100905.38
2023-12-08T00:12:03.799Z,100906.41
2023-12-08T00:14:30.406Z,100903.50
2023-12-08T00:16:56.861Z,100895.09
2023-12-08T00:19:23.241Z,100885.28
2023-12-08T00:21:49.696Z,100872.09
2023-12-08T00:24:16.196Z,100879.88
2023-12-08T00:26:42.717Z,100866.19
2023-12-08T00:29:09.252Z,100872.44
2023-12-08T00:31:35.688Z,100872.44
2023-12-08T00:34:02.261Z,100869.72
2023-12-08T00:36:28.830Z,100864.97
2023-12-08T00:38:55.445Z,100856.84
2023-12-08T00:41:21.967Z,100851.63
2023-12-08T00:43:48.380Z,100853.50
2023-12-08T00:46:16.535Z,100847.75
2023-12-08T00:48:43.028Z,100840.81
2023-12-08T00:51:09.593Z,100845.38
2023-12-08T00:53:36.289Z,100844.22
2023-12-08T00:56:02.831Z,100845.72
2023-12-08T00:58:29.208Z,100841.31
2023-12-08T01:00:55.560Z,100829.34
2023-12-08T01:03:22.156Z,100828.84
2023-12-08T01:05:48.671Z,100831.56
2023-12-08T01:08:15.139Z,100835.63
2023-12-08T01:10:41.726Z,100819.75
2023-12-08T01:13:08.514Z,100818.72
2023-12-08T01:15:34.947Z,100816.03
2023-12-08T01:18:01.659Z,100815.19
2023-12-08T01:20:28.256Z,100814.34
2023-12-08T01:22:55.572Z,100819.25
2023-12-08T01:25:22.005Z,100811.63
2023-12-08T01:27:48.409Z,100806.75
2023-12-08T01:30:15.064Z,100808.13
2023-12-08T01:32:41.755Z,100795.97
2023-12-08T01:35:08.859Z,100788.69
2023-12-08T01:37:35.223Z,100790.72
2023-12-08T01:40:01.722Z,100782.63
2023-12-08T01:42:28.475Z,100781.63
2023-12-08T01:44:54.956Z,100788.38
2023-12-08T01:47:22.026Z,100785.84
2023-12-08T01:49:48.990Z,100788.72
2023-12-08T01:52:22.960Z,100796.50
2023-12-08T01:54:54.206Z,100803.59
2023-12-08T01:57:20.868Z,100819.63
2023-12-08T01:59:49.108Z,100818.09
2023-12-08T02:02:15.662Z,100837.34
2023-12-08T02:04:44.369Z,100821.81
2023-12-08T02:07:10.853Z,100827.91
2023-12-08T02:09:37.709Z,100820.31
2023-12-08T02:12:05.964Z,100810.69
2023-12-08T02:14:32.589Z,100817.09
2023-12-08T02:17:05.330Z,100810.88
2023-12-08T02:19:32.274Z,100794.31
2023-12-08T02:21:58.922Z,100790.28
2023-12-08T02:24:25.378Z,100779.47
2023-12-08T02:26:51.965Z,100775.75
2023-12-08T02:29:18.591Z,100800.56
2023-12-08T02:31:48.638Z,100800.72
2023-12-08T02:34:17.409Z,100788.91
2023-12-08T02:36:47.088Z,100778.97
2023-12-08T02:39:17.171Z,100772.03
2023-12-08T02:41:44.297Z,100755.66
2023-12-08T02:44:10.963Z,100742.34
2023-12-08T02:46:37.347Z,100739.13
2023-12-08T02:49:03.908Z,100739.78
2023-12-08T02:51:30.640Z,100740.16
2023-12-08T02:53:57.062Z,100734.22
2023-12-08T02:56:23.451Z,100728.16
2023-12-08T02:58:49.984Z,100723.97
2023-12-08T03:01:16.441Z,100725.63
2023-12-08T03:03:43.040Z,100707.25
2023-12-08T03:06:09.547Z,100695.25
2023-12-08T03:08:36.849Z,100691.69
2023-12-08T03:11:03.306Z,100690.53
2023-12-08T03:13:29.604Z,100693.56
2023-12-08T03:15:56.183Z,100689.34
2023-12-08T03:18:22.652Z,100679.72
2023-12-08T03:20:49.228Z,100682.91
2023-12-08T03:23:15.689Z,100683.41
2023-12-08T03:25:41.995Z,100682.09
2023-12-08T03:28:08.420Z,100677.03
2023-12-08T03:30:34.843Z,100679.19
2023-12-08T03:33:01.226Z,100682.25
2023-12-08T03:35:28.351Z,100678.84
2023-12-08T03:37:54.761Z,100657.78
2023-12-08T03:40:21.295Z,100665.88
2023-12-08T03:42:47.616Z,100673.28
2023-12-08T03:45:14.114Z,100673.28
2023-12-08T03:47:40.800Z,100674.97
2023-12-08T03:50:07.661Z,100671.28
2023-12-08T03:52:34.107Z,100666.38
2023-12-08T03:55:00.480Z,100665.88
2023-12-08T03:57:27.261Z,100669.94
2023-12-08T03:59:53.948Z,100670.59
2023-12-08T04:02:20.425Z,100662.16
2023-12-08T04:04:47.036Z,100658.75
2023-12-08T04:07:13.551Z,100655.72
2023-12-08T04:09:40.268Z,100661.13
2023-12-08T04:12:06.987Z,100666.84
2023-12-08T04:14:33.634Z,100665.81
2023-12-08T04:17:00.100Z,100658.59
2023-12-08T04:19:26.664Z,100663.16
2023-12-08T04:21:53.184Z,100656.72
2023-12-08T04:24:19.594Z,100671.22
2023-12-08T04:26:46.550Z,100684.72
2023-12-08T04:29:13.054Z,100683.03
2023-12-08T04:31:39.458Z,100688.13
2023-12-08T04:34:06.121Z,100689.13
2023-12-08T04:36:32.634Z,100686.78
2023-12-08T04:38:59.001Z,100698.56
2023-12-08T04:41:25.583Z,100701.66
2023-12-08T04:43:52.011Z,100699.25
2023-12-08T04:46:19.317Z,100699.44
2023-12-08T04:48:46.147Z,100699.44
2023-12-08T04:51:12.612Z,100695.22
2023-12-08T04:53:39.030Z,100688.78
2023-12-08T04:56:06.085Z,100668.19
2023-12-08T04:58:32.487Z,100641.72
2023-12-08T05:00:58.865Z,100663.16
2023-12-08T05:03:25.509Z,100659.41
2023-12-08T05:05:52.125Z,100666.88
2023-12-08T05:08:18.701Z,100668.88
2023-12-08T05:10:45.572Z,100677.00
2023-12-08T05:13:12.453Z,100664.31
2023-12-08T05:15:39.004Z,100656.41
2023-12-08T05:18:05.631Z,100657.94
2023-12-08T05:20:32.212Z,100661.13
2023-12-08T05:22:58.603Z,100663.63
2023-12-08T05:25:25.055Z,100649.44
2023-12-08T05:27:51.516Z,100646.25
2023-12-08T05:30:17.920Z,100639.13
2023-12-08T05:32:44.955Z,100648.75
2023-12-08T05:35:11.433Z,100652.66
2023-12-08T05:37:37.714Z,100647.94
2023-12-08T05:40:04.805Z,100649.94
2023-12-08T05:42:31.785Z,100644.34
2023-12-08T05:44:58.241Z,100638.44
2023-12-08T05:47:25.059Z,100633.88
2023-12-08T05:49:51.698Z,100639.78
2023-12-08T05:52:18.158Z,100644.53
2023-12-08T05:54:44.822Z,100650.94
2023-12-08T05:57:11.385Z,100649.94
2023-12-08T05:59:37.956Z,100654.66
2023-12-08T06:02:04.407Z,100655.00
2023-12-08T06:04:30.847Z,100661.41
2023-12-08T06:06:57.622Z,100655.66
2023-12-08T06:09:24.691Z,100656.72
2023-12-08T06:11:51.631Z,100660.91
2023-12-08T06:14:18.317Z,100662.41
2023-12-08T06:16:44.921Z,100664.94
2023-12-08T06:19:11.611Z,100661.88
2023-12-08T06:21:38.094Z,100667.63
2023-12-08T06:24:04.895Z,100671.22
2023-12-08T06:26:31.609Z,100675.41
2023-12-08T06:28:58.404Z,100666.81
2023-12-08T06:31:24.823Z,100668.00
2023-12-08T06:34:04.831Z,100657.69
2023-12-08T06:36:45.130Z,100654.63
2023-12-08T06:39:13.211Z,100655.16
2023-12-08T06:41:39.972Z,100668.31
2023-12-08T06:44:06.398Z,100676.63
2023-12-08T06:46:32.757Z,100666.81
2023-12-08T06:48:59.326Z,100665.81
2023-12-08T06:51:25.987Z,100666.09
2023-12-08T06:53:54.080Z,100661.38
2023-12-08T06:56:23.043Z,100661.19
2023-12-08T06:58:49.671Z,100653.44
2023-12-08T07:01:16.356Z,100661.72
2023-12-08T07:03:42.826Z,100665.44
2023-12-08T07:06:09.212Z,100655.84
2023-12-08T07:08:35.958Z,100658.69
2023-12-08T07:11:03.730Z,100664.44
2023-12-08T07:13:30.680Z,100661.72
2023-12-08T07:15:57.129Z,100663.59
2023-12-08T07:18:23.636Z,100657.31
2023-12-08T07:20:50.374Z,100656.97
2023-12-08T07:23:16.968Z,100657.66
2023-12-08T07:25:43.819Z,100663.06
2023-12-08T07:28:10.251Z,100666.41
2023-12-08T07:30:36.677Z,100663.84
2023-12-08T07:33:05.273Z,100668.44
2023-12-08T07:35:32.122Z,100675.69
2023-12-08T07:37:58.929Z,100670.81
2023-12-08T07:40:25.536Z,100672.16
2023-12-08T07:42:51.914Z,100673.47
2023-12-08T07:45:18.616Z,100682.97
2023-12-08T07:47:47.690Z,100687.53
2023-12-08T07:50:16.062Z,100689.34
2023-12-08T07:52:45.703Z,100692.72
2023-12-08T07:55:12.128Z,100690.88
2023-12-08T07:57:39.176Z,100678.53
2023-12-08T08:00:07.500Z,100686.66
2023-12-08T08:02:34.240Z,100686.66
2023-12-08T08:05:00.629Z,100688.66
2023-12-08T08:07:29.265Z,100689.16
2023-12-08T08:09:55.997Z,100691.53
2023-12-08T08:12:22.346Z,100699.81
2023-12-08T08:14:48.902Z,100693.19
2023-12-08T08:17:15.325Z,100704.88
2023-12-08T08:19:42.987Z,100699.47
2023-12-08T08:22:29.026Z,100701.94
2023-12-08T08:24:55.950Z,100704.66
2023-12-08T08:27:22.949Z,100703.81
2023-12-08T08:29:49.629Z,100703.13
2023-12-08T08:32:18.355Z,100706.50
2023-12-08T08:34:45.954Z,100707.19
2023-12-08T08:37:12.514Z,100692.78
2023-12-08T08:39:39.091Z,100698.69
2023-12-08T08:42:05.868Z,100697.34
2023-12-08T08:44:32.440Z,100701.19
2023-12-08T08:46:58.894Z,100695.13
2023-12-08T08:49:25.516Z,100681.63
2023-12-08T08:51:52.223Z,100694.31
2023-12-08T08:54:18.643Z,100690.22
2023-12-08T08:56:44.970Z,100712.50
2023-12-08T08:59:11.541Z,100712.00
2023-12-08T09:01:39.539Z,100716.72
2023-12-08T09:04:06.063Z,100712.16
2023-12-08T09:06:32.784Z,100709.44
2023-12-08T09:08:59.413Z,100710.13
2023-12-08T09:11:25.919Z,100717.88
2023-12-08T09:13:52.384Z,100720.59
2023-12-08T09:16:19.226Z,100729.19
2023-12-08T09:18:45.783Z,100732.75
2023-12-08T09:21:12.357Z,100732.75
2023-12-08T09:23:38.949Z,100734.91
2023-12-08T09:26:05.576Z,100728.47
2023-12-08T09:28:31.988Z,100722.91
2023-12-08T09:30:58.683Z,100720.00
2023-12-08T09:33:29.075Z,100720.13
2023-12-08T09:35:56.636Z,100729.94
2023-12-08T09:38:31.265Z,100731.28
2023-12-08T09:41:02.127Z,100734.28
2023-12-08T09:43:54.337Z,100732.25
2023-12-08T09:46:21.507Z,100733.94
2023-12-08T09:48:49.284Z,100735.44
2023-12-08T09:51:16.412Z,100720.03
2023-12-08T09:53:44.042Z,100724.06
2023-12-08T09:56:11.915Z,100728.28
2023-12-08T09:58:41.366Z,100725.69
2023-12-08T10:01:11.486Z,100723.66
2023-12-08T10:03:37.989Z,100728.50
2023-12-08T10:06:05.525Z,100714.97
2023-12-08T10:08:33.089Z,100718.34
2023-12-08T10:10:59.511Z,100725.63
2023-12-08T10:13:27.187Z,100723.56
2023-12-08T10:15:56.054Z,100719.00
2023-12-08T10:18:24.963Z,100715.28
2023-12-08T10:20:52.308Z,100719.97
2023-12-08T10:23:22.072Z,100722.31
2023-12-08T10:25:49.337Z,100718.75
2023-12-08T10:28:15.877Z,100737.34
2023-12-08T10:30:53.029Z,100734.84
2023-12-08T10:33:22.468Z,100738.66
2023-12-08T10:35:50.024Z,100731.22
2023-12-08T10:38:16.603Z,100730.53
2023-12-08T10:40:47.459Z,100724.09
2023-12-08T10:43:23.733Z,100728.50
2023-12-08T10:45:52.152Z,100729.47
2023-12-08T10:48:21.522Z,100720.97
2023-12-08T10:50:52.711Z,100715.56
2023-12-08T10:53:20.811Z,100712.28
2023-12-08T10:56:10.094Z,100722.56
2023-12-08T10:58:37.833Z,100714.44
2023-12-08T11:01:15.917Z,100709.50
2023-12-08T11:03:53.871Z,100708.78
2023-12-08T11:06:29.654Z,100708.22
2023-12-08T11:09:01.162Z,100711.88
2023-12-08T11:11:30.205Z,100704.41
2023-12-08T11:14:14.364Z,100709.25
2023-12-08T11:16:52.123Z,100706.91
2023-12-08T11:19:21.292Z,100694.31
2023-12-08T11:21:49.353Z,100695.44
2023-12-08T11:24:16.052Z,100697.78
2023-12-08T11:26:50.959Z,100695.53
2023-12-08T11:29:36.748Z,100693.91
2023-12-08T11:32:16.138Z,100690.09
2023-12-08T11:34:59.111Z,100698.88
2023-12-08T11:37:25.724Z,100693.06
2023-12-08T11:40:00.759Z,100697.75
2023-12-08T11:42:29.056Z,100693.59
2023-12-08T11:44:57.846Z,100704.47
2023-12-08T11:47:27.419Z,100695.09
2023-12-08T11:49:56.156Z,100694.34
2023-12-08T11:52:33.915Z,100713.44
2023-12-08T11:57:30.690Z,100717.16
2023-12-08T11:59:57.486Z,100713.22
2023-12-08T12:02:24.242Z,100707.22
2023-12-08T12:04:50.903Z,100709.09
2023-12-08T12:07:23.166Z,100706.00
2023-12-08T12:09:51.854Z,100719.88
2023-12-08T12:12:30.991Z,100710.94
2023-12-08T12:15:01.046Z,100717.66
2023-12-08T12:17:27.772Z,100717.47
2023-12-08T12:19:54.571Z,100709.97
2023-12-08T12:22:21.071Z,100712.31
2023-12-08T12:24:48.016Z,100705.00
2023-12-08T12:27:15.531Z,100711.34
2023-12-08T12:29:43.770Z,100711.16
2023-12-08T12:32:10.287Z,100716.00
2023-12-08T12:34:37.706Z,100710.66
2023-12-08T12:37:05.152Z,100710.06
2023-12-08T12:39:31.804Z,100716.97
2023-12-08T12:41:59.637Z,100713.28
2023-12-08T12:44:41.927Z,100716.66
2023-12-08T12:47:12.033Z,100726.09
2023-12-08T12:49:43.776Z,100715.84
2023-12-08T12:52:24.265Z,100718.00
2023-12-08T12:54:50.740Z,100723.09
2023-12-08T12:57:17.489Z,100722.72
2023-12-08T12:59:54.281Z,100728.41
2023-12-08T13:02:28.961Z,100721.59
2023-12-08T13:04:56.218Z,100723.97
2023-12-08T13:07:22.982Z,100723.16
2023-12-08T13:09:49.510Z,100720.31
2023-12-08T13:12:15.947Z,100727.66
2023-12-08T13:14:42.517Z,100729.81
2023-12-08T13:17:09.019Z,100731.53
2023-12-08T13:19:36.645Z,100732.97
2023-12-08T13:22:03.146Z,100734.47
2023-12-08T13:24:29.591Z,100737.63
2023-12-08T13:26:56.188Z,100754.66
2023-12-08T13:29:22.639Z,100753.19
2023-12-08T13:31:49.072Z,100755.53
2023-12-08T13:34:15.612Z,100755.53
2023-12-08T13:36:42.155Z,100756.84
2023-12-08T13:39:09.505Z,100764.44
2023-12-08T13:41:35.933Z,100771.59
2023-12-08T13:44:02.398Z,100769.50
2023-12-08T13:46:28.879Z,100761.34
2023-12-08T13:48:56.455Z,100768.47
2023-12-08T13:51:38.242Z,100769.94
2023-12-08T13:54:06.364Z,100773.09
2023-12-08T13:56:33.022Z,100770.13
2023-12-08T13:58:59.673Z,100772.66
2023-12-08T14:01:26.403Z,100776.84
2023-12-08T14:03:53.509Z,100772.06
2023-12-08T14:06:23.609Z,100772.06
2023-12-08T14:08:53.120Z,100781.06
2023-12-08T14:11:20.145Z,100792.16
2023-12-08T14:13:46.591Z,100792.16
2023-12-08T14:16:13.504Z,100809.97
2023-12-08T14:18:40.137Z,100806.84
2023-12-08T14:21:06.875Z,100802.44
2023-12-08T14:23:33.458Z,100800.56
2023-12-08T14:26:00.617Z,100798.03
2023-12-08T14:28:27.059Z,100799.50
2023-12-08T14:30:53.608Z,100798.88
2023-12-08T14:33:20.169Z,100804.53
2023-12-08T14:35:46.927Z,100800.16
2023-12-08T14:38:16.191Z,100801.81
2023-12-08T14:40:42.855Z,100810.66
2023-12-08T14:43:09.385Z,100806.47
2023-12-08T14:45:36.017Z,100809.19
2023-12-08T14:48:04.381Z,100811.50
2023-12-08T14:50:31.307Z,100814.25
2023-12-08T14:52:57.834Z,100813.19
2023-12-08T14:55:24.302Z,100814.88
2023-12-08T14:57:51.471Z,100816.78
2023-12-08T15:00:18.130Z,100810.28
2023-12-08T15:02:44.948Z,100817.84
2023-12-08T15:05:11.697Z,100823.94
2023-12-08T15:07:38.288Z,100824.97
2023-12-08T15:10:05.839Z,100820.56
2023-12-08T15:12:32.430Z,100824.59
2023-12-08T15:14:58.891Z,100820.00
2023-12-08T15:17:25.562Z,100825.88
2023-12-08T15:19:52.134Z,100823.56
2023-12-08T15:22:18.630Z,100833.47
2023-12-08T15:24:45.032Z,100833.47
2023-12-08T15:27:11.527Z,100833.47
2023-12-08T15:29:38.025Z,100832.84
2023-12-08T15:32:04.541Z,100839.38
2023-12-08T15:34:31.158Z,100837.50
2023-12-08T15:36:57.642Z,100834.78
2023-12-08T15:39:24.113Z,100833.53
2023-12-08T15:41:50.658Z,100842.72
2023-12-08T15:44:17.174Z,100849.00
2023-12-08T15:46:43.623Z,100846.94
2023-12-08T15:49:10.717Z,100844.44
2023-12-08T15:51:37.392Z,100849.03
2023-12-08T15:54:04.903Z,100849.88
2023-12-08T15:56:32.088Z,100857.41
2023-12-08T15:58:58.526Z,100859.72
2023-12-08T16:01:25.216Z,100853.63
2023-12-08T16:03:51.812Z,100856.56
2023-12-08T16:06:18.755Z,100861.44
2023-12-08T16:08:45.679Z,100864.16
2023-12-08T16:11:17.774Z,100866.91
2023-12-08T16:13:44.571Z,100860.81
2023-12-08T16:16:11.367Z,100874.25
2023-12-08T16:18:37.955Z,100876.75
2023-12-08T16:21:04.749Z,100882.19
2023-12-08T16:23:31.329Z,100882.63
2023-12-08T16:26:01.746Z,100885.34
2023-12-08T16:28:28.178Z,100890.38
2023-12-08T16:30:54.670Z,100884.91
2023-12-08T16:33:21.582Z,100880.50
2023-12-08T16:35:48.067Z,100884.72
2023-12-08T16:38:14.460Z,100877.56
2023-12-08T16:40:42.037Z,100879.88
2023-12-08T16:43:08.550Z,100880.50
2023-12-08T16:45:35.843Z,100881.75
2023-12-08T16:48:02.509Z,100869.81
2023-12-08T16:50:28.956Z,100861.63
2023-12-08T16:52:55.412Z,100866.69
2023-12-08T16:55:21.933Z,100867.34
2023-12-08T16:57:48.421Z,100866.69
2023-12-08T17:00:15.337Z,100870.06
2023-12-08T17:02:42.693Z,100872.38
2023-12-08T17:05:09.378Z,100872.16
2023-12-08T17:07:38.539Z,100861.66
2023-12-08T17:10:05.535Z,100875.09
2023-12-08T17:12:32.307Z,100866.94
2023-12-08T17:14:58.824Z,100865.88
2023-12-08T17:17:25.421Z,100874.06
2023-12-08T17:19:52.605Z,100877.63
2023-12-08T17:22:19.075Z,100864.00
2023-12-08T17:24:45.511Z,100876.81
2023-12-08T17:27:12.060Z,100865.69
2023-12-08T17:29:38.541Z,100861.28
2023-12-08T17:32:05.061Z,100861.06
2023-12-08T17:34:31.761Z,100863.78
2023-12-08T17:36:59.199Z,100862.13
2023-12-08T17:39:25.697Z,100872.19
2023-12-08T17:41:52.211Z,100874.69
2023-12-08T17:44:18.705Z,100877.22
2023-12-08T17:46:45.534Z,100877.44
2023-12-08T17:49:12.198Z,100885.22
2023-12-08T17:51:39.152Z,100888.16
2023-12-08T17:54:05.663Z,100882.91
2023-12-08T17:56:32.115Z,100883.53
2023-12-08T17:58:58.560Z,100881.66
2023-12-08T18:01:25.256Z,100882.50
2023-12-08T18:03:51.876Z,100886.69
2023-12-08T18:06:18.982Z,100881.88
2023-12-08T18:08:45.494Z,100870.53
2023-12-08T18:11:25.332Z,100875.59
2023-12-08T18:13:54.206Z,100872.84
2023-12-08T18:16:27.490Z,100883.97
2023-12-08T18:18:55.245Z,100888.56
2023-12-08T18:21:32.090Z,100885.66
2023-12-08T18:23:59.180Z,100891.72
2023-12-08T18:26:28.599Z,100889.22
2023-12-08T18:29:07.852Z,100893.22
2023-12-08T18:31:37.278Z,100901.63
2023-12-08T18:34:05.607Z,100896.56
2023-12-08T18:36:36.413Z,100898.25
2023-12-08T18:39:04.835Z,100898.25
2023-12-08T18:41:31.937Z,100906.22
2023-12-08T18:43:58.632Z,100905.19
2023-12-08T18:46:25.074Z,100913.38
2023-12-08T18:48:51.893Z,100901.81
2023-12-08T18:51:18.756Z,100903.72
2023-12-08T18:53:45.917Z,100912.94
2023-12-08T18:56:13.346Z,100914.22
2023-12-08T18:58:39.742Z,100908.97
2023-12-08T19:01:07.465Z,100911.50
2023-12-08T19:03:34.011Z,100913.34
2023-12-08T19:06:00.853Z,100912.94
2023-12-08T19:08:27.643Z,100908.13
2023-12-08T19:10:54.120Z,100903.50
2023-12-08T19:13:21.341Z,100911.28
2023-12-08T19:15:49.254Z,100908.34
2023-12-08T19:18:15.767Z,100914.84
2023-12-08T19:20:43.559Z,100916.31
2023-12-08T19:23:10.193Z,100922.19
2023-12-08T19:25:36.742Z,100919.66
2023-12-08T19:28:03.435Z,100926.81
2023-12-08T19:30:29.930Z,100922.19
2023-12-08T19:32:56.446Z,100930.59
2023-12-08T19:35:23.121Z,100921.56
2023-12-08T19:37:49.808Z,100924.72
2023-12-08T19:40:16.317Z,100919.88
2023-12-08T19:42:42.999Z,100920.09
2023-12-08T19:45:09.762Z,100917.16
2023-12-08T19:47:36.431Z,100924.50
2023-12-08T19:50:04.427Z,100926.16
2023-12-08T19:52:31.851Z,100917.97
2023-12-08T19:54:58.864Z,100922.41
2023-12-08T19:57:25.479Z,100929.53
2023-12-08T19:59:53.939Z,100924.72
2023-12-08T20:02:20.914Z,100924.50
2023-12-08T20:04:48.685Z,100933.94
2023-12-08T20:07:16.090Z,100937.94
2023-12-08T20:09:42.836Z,100932.69
2023-12-08T20:12:10.881Z,100933.75
2023-12-08T20:14:38.938Z,100932.91
2023-12-08T20:17:05.611Z,100940.88
2023-12-08T20:19:32.645Z,100939.19
2023-12-08T20:21:59.233Z,100938.97
2023-12-08T20:24:25.753Z,100936.88
2023-12-08T20:26:52.243Z,100932.66
2023-12-08T20:29:18.877Z,100935.41
2023-12-08T20:31:46.201Z,100929.53
2023-12-08T20:34:14.142Z,100930.56
2023-12-08T20:36:40.934Z,100931.41
2023-12-08T20:39:07.397Z,100938.34
2023-12-08T20:41:33.933Z,100939.81
2023-12-08T20:44:00.572Z,100939.19
2023-12-08T20:46:26.998Z,100939.84
2023-12-08T20:48:53.629Z,100942.75
2023-12-08T20:51:20.199Z,100950.13
2023-12-08T20:53:47.508Z,100941.50
2023-12-08T20:56:15.541Z,100941.28
2023-12-08T20:58:42.216Z,100946.53
2023-12-08T21:01:09.178Z,100946.13
2023-12-08T21:03:35.957Z,100956.63
2023-12-08T21:06:05.896Z,100940.00
2023-12-08T21:08:33.252Z,100951.16
2023-12-08T21:11:00.269Z,100944.44
2023-12-08T21:13:26.788Z,100943.41
2023-12-08T21:15:53.215Z,100953.88
2023-12-08T21:18:20.125Z,100948.22
2023-12-08T21:20:50.372Z,100952.00
2023-12-08T21:23:17.267Z,100945.28
2023-12-08T21:25:43.728Z,100951.16
2023-12-08T21:28:10.184Z,100945.28
2023-12-08T21:30:37.449Z,100953.06
2023-12-08T21:33:04.546Z,100951.34
2023-12-08T21:35:31.142Z,100948.19
2023-12-08T21:37:57.843Z,100955.53
2023-12-08T21:40:24.396Z,100954.91
2023-12-08T21:42:54.074Z,100955.13
2023-12-08T21:45:22.610Z,100957.22
2023-12-08T21:47:49.694Z,100951.97
2023-12-08T21:50:16.381Z,100951.97
2023-12-08T21:52:42.772Z,100948.84
2023-12-08T21:55:09.644Z,100949.69
2023-12-08T21:57:36.240Z,100944.88
2023-12-08T22:00:02.852Z,100940.03
2023-12-08T22:02:29.300Z,100937.94
2023-12-08T22:04:57.254Z,100942.75
2023-12-08T22:07:23.850Z,100946.75
2023-12-08T22:09:51.000Z,100934.34
2023-12-08T22:12:18.558Z,100940.03
2023-12-08T22:14:45.128Z,100942.53
2023-12-08T22:17:11.514Z,100936.91
2023-12-08T22:19:38.101Z,100939.41
2023-12-08T22:22:04.648Z,100952.41
2023-12-08T22:24:32.014Z,100945.47
2023-12-08T22:26:58.558Z,100947.16
2023-12-08T22:29:25.423Z,100955.34
2023-12-08T22:31:54.852Z,100955.13
2023-12-08T22:34:22.737Z,100955.94
2023-12-08T22:36:49.303Z,100951.34
2023-12-08T22:39:15.739Z,100963.47
2023-12-08T22:41:42.171Z,100976.69
2023-12-08T22:44:08.660Z,100973.94
2023-12-08T22:46:35.128Z,100974.38
2023-12-08T22:49:01.632Z,100963.28
2023-12-08T22:51:37.960Z,100961.56
2023-12-08T22:54:09.840Z,100962.63
2023-12-08T22:56:36.371Z,100960.75
2023-12-08T22:59:02.812Z,100964.72
2023-12-08T23:01:29.244Z,100961.59
2023-12-08T23:03:55.985Z,100969.34
2023-12-08T23:06:22.575Z,100968.50
2023-12-08T23:08:49.206Z,100967.88
2023-12-08T23:11:15.694Z,100973.13
2023-12-08T23:13:43.349Z,100977.09
2023-12-08T23:16:09.873Z,100976.28
2023-12-08T23:18:36.369Z,100977.94
2023-12-08T23:21:03.024Z,100987.59
2023-12-08T23:23:29.463Z,100975.63
2023-12-08T23:25:55.922Z,100979.63
2023-12-08T23:28:23.571Z,100982.56
2023-12-08T23:30:57.465Z,100981.28
2023-12-08T23:33:27.184Z,100985.69
2023-12-08T23:35:53.887Z,100980.84
2023-12-08T23:38:20.255Z,100983.59
2023-12-08T23:40:46.663Z,100986.75
2023-12-08T23:43:13.145Z,100991.81
2023-12-08T23:45:39.705Z,100979.66
2023-12-08T23:48:06.365Z,100982.56
2023-12-08T23:50:32.887Z,100985.69
2023-12-08T23:52:59.329Z,100984.84
2023-12-08T23:55:25.766Z,100985.69
2023-12-08T23:57:52.260Z,100983.63
